TAF PABR
PABR 072331Z 0800/0824 20020KT 2SM BLSN BKN013 OVC023 FM081900 23017KT 4SM BLSN OVC025=
METAR PABR
WC PABR
WS PABR
WV PABR